Time;durP1;ratioP1;P1;durP2;ratioP2;P2;SDS_P1;SDS_P2;PMS_P1;PMS_P2;Temp;Humidity;BMP_temperature;BMP_pressure;BME280_temperature;BME280_humidity;BME280_pressure;Samples;Min_cycle;Max_cycle;Signal;HPM_P1;HPM_P2
2022/05/02 00:03:26;;;;;;;12.80;10.17;;;;;;;7.64;32.83;100982.63;10038878;29;20509;-92
2022/05/02 00:08:30;;;;;;;13.87;10.17;;;;;;;7.24;33.44;100980.31;10064517;29;20240;-84
2022/05/02 00:13:32;;;;;;;13.83;10.80;;;;;;;6.74;34.25;100976.75;10031852;29;20271;-84
2022/05/02 00:18:35;;;;;;;10.97;9.67;;;;;;;6.27;34.94;100959.88;10046657;29;20230;-85
2022/05/02 00:23:37;;;;;;;12.47;9.30;;;;;;;6.32;35.03;100959.66;10057063;29;20209;-84
2022/05/02 00:28:39;;;;;;;11.67;9.60;;;;;;;5.68;36.12;100956.94;10068542;29;20210;-83
2022/05/02 00:33:41;;;;;;;11.53;9.40;;;;;;;5.84;36.05;100958.09;10047945;29;20213;-83
2022/05/02 00:38:44;;;;;;;12.47;9.77;;;;;;;5.94;35.45;100939.88;10046309;29;20306;-84
2022/05/02 00:43:46;;;;;;;10.13;9.13;;;;;;;6.41;35.04;100940.63;10063816;29;20238;-84
2022/05/02 00:48:49;;;;;;;10.47;9.33;;;;;;;6.48;34.75;100938.06;10057122;29;20237;-85
2022/05/02 00:53:52;;;;;;;10.30;8.83;;;;;;;6.41;34.64;100940.63;10043982;29;20210;-83
2022/05/02 00:58:55;;;;;;;13.43;9.33;;;;;;;5.89;35.88;100955.09;10061290;29;20257;-83
2022/05/02 01:03:57;;;;;;;12.37;9.07;;;;;;;6.02;35.46;100950.38;10034147;29;20235;-88
2022/05/02 01:08:59;;;;;;;14.07;9.40;;;;;;;5.85;35.81;100948.44;10063156;29;20268;-84
2022/05/02 01:14:08;;;;;;;11.30;8.87;;;;;;;5.76;35.83;100938.31;10046449;29;20223;-85
2022/05/02 01:19:10;;;;;;;13.10;9.83;;;;;;;6.05;35.08;100934.69;10054069;29;20246;-84
2022/05/02 01:24:13;;;;;;;14.97;9.87;;;;;;;5.93;35.73;100937.38;10030304;29;20207;-84
2022/05/02 01:29:15;;;;;;;13.50;10.67;;;;;;;6.53;35.02;100920.91;10030513;29;20542;-85
2022/05/02 01:34:17;;;;;;;14.27;10.27;;;;;;;6.17;35.74;100938.44;10045614;29;20211;-84
2022/05/02 01:39:19;;;;;;;15.43;10.77;;;;;;;6.00;35.64;100934.88;10044502;29;20226;-84
2022/05/02 01:44:21;;;;;;;13.20;10.43;;;;;;;6.21;35.29;100924.41;10030200;29;20267;-84
2022/05/02 01:49:24;;;;;;;15.20;10.37;;;;;;;6.38;35.27;100917.81;10031606;29;20195;-83
2022/05/02 01:54:26;;;;;;;10.90;9.47;;;;;;;6.49;34.68;100916.25;10056245;29;20258;-84
2022/05/02 01:59:28;;;;;;;12.50;9.80;;;;;;;5.55;36.51;100918.38;10071029;29;20286;-83
2022/05/02 02:09:52;;;;;;;11.47;9.43;;;;;;;6.17;34.75;100920.63;10066830;29;20528;-84
2022/05/02 02:14:54;;;;;;;10.87;9.00;;;;;;;6.29;34.86;100915.03;10030918;29;20198;-84
2022/05/02 02:19:56;;;;;;;11.37;9.13;;;;;;;5.68;35.71;100917.31;10030836;29;20365;-84
2022/05/02 02:24:59;;;;;;;11.57;9.17;;;;;;;5.67;35.87;100921.31;10044865;29;20235;-85
2022/05/02 02:30:01;;;;;;;12.93;10.03;;;;;;;6.41;34.36;100912.28;10062646;29;20209;-85
2022/05/02 02:35:04;;;;;;;10.77;9.23;;;;;;;5.45;35.96;100901.78;10071944;29;20242;-85
2022/05/02 02:40:09;;;;;;;14.67;9.83;;;;;;;6.50;34.28;100898.91;10026442;29;20219;-85
2022/05/02 02:45:12;;;;;;;13.10;10.43;;;;;;;6.30;34.79;100902.53;10007588;29;20203;-84
2022/05/02 02:50:14;;;;;;;12.37;10.67;;;;;;;6.58;34.25;100894.34;10013896;29;20231;-84
2022/05/02 02:55:16;;;;;;;13.53;10.93;;;;;;;6.28;34.74;100896.38;10014467;29;20206;-85
2022/05/02 03:00:19;;;;;;;12.50;10.87;;;;;;;6.34;34.57;100883.66;10061464;29;20206;-84
2022/05/02 03:10:43;;;;;;;13.97;11.23;;;;;;;6.39;34.61;100880.63;10047178;29;20195;-85
2022/05/02 03:15:45;;;;;;;12.73;10.83;;;;;;;5.90;35.53;100879.47;10029230;29;20202;-85
2022/05/02 03:20:47;;;;;;;13.23;9.90;;;;;;;4.80;37.58;100888.75;10014024;29;20286;-85
2022/05/02 03:25:49;;;;;;;12.07;9.93;;;;;;;4.02;38.54;100894.34;10028830;29;20474;-85
2022/05/02 03:30:51;;;;;;;16.77;9.70;;;;;;;3.68;39.34;100894.22;10029331;29;20624;-85
2022/05/02 03:35:54;;;;;;;14.53;10.13;;;;;;;4.22;38.66;100892.91;10048720;29;20600;-85
2022/05/02 03:40:56;;;;;;;10.90;9.67;;;;;;;4.22;38.20;100889.25;10051200;29;20624;-85
2022/05/02 03:45:58;;;;;;;11.30;10.07;;;;;;;4.39;38.19;100881.59;10051249;29;20247;-85
2022/05/02 03:51:01;;;;;;;12.37;9.47;;;;;;;3.89;39.05;100888.78;10039782;29;20473;-85
2022/05/02 03:56:04;;;;;;;12.47;9.87;;;;;;;3.22;40.11;100891.81;10031820;29;20267;-85
2022/05/02 04:01:06;;;;;;;11.13;9.93;;;;;;;3.30;40.17;100880.59;10022235;29;20219;-84
2022/05/02 04:06:09;;;;;;;14.30;8.97;;;;;;;3.26;40.30;100876.75;10041022;29;20669;-83
2022/05/02 04:11:11;;;;;;;10.83;9.40;;;;;;;3.33;40.70;100876.28;10035922;29;20199;-85
2022/05/02 04:16:14;;;;;;;11.83;10.00;;;;;;;2.19;41.83;100881.41;9985925;29;20245;-84
2022/05/02 04:21:16;;;;;;;12.63;10.43;;;;;;;1.70;45.13;100884.97;10043952;29;20239;-84
2022/05/02 04:26:18;;;;;;;14.80;10.47;;;;;;;2.91;40.94;100884.16;10015813;29;20477;-84
2022/05/02 04:31:21;;;;;;;14.77;9.87;;;;;;;4.12;38.90;100874.25;10014247;29;20247;-86
2022/05/02 04:36:23;;;;;;;14.07;10.40;;;;;;;4.38;38.47;100885.56;10035389;29;20302;-84
2022/05/02 04:41:25;;;;;;;12.30;9.63;;;;;;;4.43;38.47;100879.78;10048900;29;20286;-85
2022/05/02 04:46:28;;;;;;;11.37;10.23;;;;;;;4.27;38.91;100872.94;10048800;29;20195;-86
2022/05/02 04:51:30;;;;;;;12.73;10.80;;;;;;;3.89;39.65;100869.03;10055658;29;20534;-84
2022/05/02 04:56:32;;;;;;;14.33;10.37;;;;;;;4.26;39.36;100871.28;10031648;29;20194;-85
2022/05/02 05:01:34;;;;;;;15.17;10.10;;;;;;;4.73;38.81;100879.94;10020228;29;20222;-85
2022/05/02 05:06:37;;;;;;;14.20;10.80;;;;;;;5.17;37.41;100873.91;9997657;29;20256;-84
2022/05/02 05:11:49;;;;;;;11.77;9.77;;;;;;;5.40;36.58;100876.50;10012785;29;20199;-85
2022/05/02 05:17:03;;;;;;;11.70;9.90;;;;;;;4.84;38.96;100881.25;10017056;29;20597;-85
2022/05/02 05:22:27;;;;;;;14.63;10.30;;;;;;;5.31;37.24;100882.19;10028019;29;20256;-85
2022/05/02 05:27:48;;;;;;;12.03;9.83;;;;;;;5.46;37.02;100877.97;10041001;29;20207;-84
2022/05/02 05:33:17;;;;;;;13.07;10.13;;;;;;;5.34;37.64;100877.84;10026116;29;20199;-86
2022/05/02 05:38:42;;;;;;;15.97;10.30;;;;;;;5.03;38.05;100873.25;10022583;29;20216;-85
2022/05/02 05:44:13;;;;;;;11.17;9.50;;;;;;;6.42;35.18;100865.78;10020938;29;20597;-84
2022/05/02 05:49:44;;;;;;;14.23;9.77;;;;;;;6.50;34.95;100876.22;10008194;29;20210;-84
2022/05/02 05:54:59;;;;;;;16.20;10.63;;;;;;;5.07;37.65;100884.75;9993635;29;20240;-86
2022/05/02 06:00:13;;;;;;;14.17;10.57;;;;;;;5.96;36.21;100874.41;10019820;29;20227;-85
2022/05/02 06:05:16;;;;;;;24.50;12.23;;;;;;;6.34;35.64;100869.50;10035674;29;20278;-87
2022/05/02 06:10:19;;;;;;;18.77;11.50;;;;;;;6.25;35.48;100868.72;10038685;29;20543;-85
2022/05/02 06:20:47;;;;;;;16.00;12.00;;;;;;;6.91;34.48;100874.53;10052208;29;20222;-85
2022/05/02 06:25:49;;;;;;;22.97;11.67;;;;;;;7.17;34.03;100871.44;10050287;29;20596;-88
2022/05/02 06:30:56;;;;;;;18.63;11.17;;;;;;;7.33;33.75;100875.28;10053187;29;20202;-84
2022/05/02 06:36:34;;;;;;;13.70;10.17;;;;;;;7.58;33.05;100871.31;10055438;29;20545;-85
2022/05/02 06:42:01;;;;;;;11.17;9.23;;;;;;;6.89;33.11;100869.22;10043996;29;20528;-84
2022/05/02 06:47:09;;;;;;;13.00;10.37;;;;;;;6.98;33.08;100873.97;10043113;29;20239;-85
2022/05/02 06:52:11;;;;;;;13.03;10.63;;;;;;;7.59;32.97;100867.28;10039696;29;20572;-85
2022/05/02 06:57:35;;;;;;;10.67;8.40;;;;;;;7.93;31.48;100868.81;10038413;29;20389;-85
2022/05/02 07:02:57;;;;;;;14.87;8.43;;;;;;;7.25;32.42;100874.16;10031939;29;20294;-84
2022/05/02 07:08:05;;;;;;;16.40;9.53;;;;;;;7.51;32.56;100875.88;10062721;29;20206;-85
2022/05/02 07:13:17;;;;;;;14.07;9.60;;;;;;;8.52;30.61;100876.00;10053209;29;20194;-89
2022/05/02 07:18:19;;;;;;;19.60;9.93;;;;;;;7.50;32.49;100874.22;10027402;29;20318;-89
2022/05/02 07:23:40;;;;;;;15.17;9.20;;;;;;;8.73;31.12;100867.28;10060321;29;20203;-85
2022/05/02 07:28:52;;;;;;;13.63;8.60;;;;;;;9.31;29.92;100868.50;10053634;29;20201;-85
2022/05/02 07:33:55;;;;;;;14.17;8.70;;;;;;;7.30;33.30;100871.13;10068379;29;20234;-85
2022/05/02 07:39:01;;;;;;;10.73;9.07;;;;;;;8.13;31.82;100860.56;10057688;29;20243;-86
2022/05/02 07:44:08;;;;;;;11.53;7.80;;;;;;;9.07;30.30;100875.19;10057498;29;20230;-85
2022/05/02 07:49:14;;;;;;;16.37;8.53;;;;;;;8.41;31.03;100875.63;10055470;29;20203;-91
2022/05/02 07:54:20;;;;;;;15.47;8.97;;;;;;;7.69;32.55;100877.34;10055646;29;20202;-92
2022/05/02 07:59:39;;;;;;;9.27;8.20;;;;;;;7.18;32.96;100878.75;10050178;29;20703;-85
2022/05/02 08:04:42;;;;;;;10.00;8.63;;;;;;;8.50;32.57;100873.50;10036956;29;20198;-86
2022/05/02 08:10:11;;;;;;;9.27;7.20;;;;;;;9.36;30.02;100871.94;10067043;29;20198;-86
2022/05/02 08:15:31;;;;;;;10.93;7.63;;;;;;;9.21;30.81;100869.06;10075920;29;20258;-85
2022/05/02 08:20:56;;;;;;;10.77;7.27;;;;;;;7.97;32.01;100861.25;10076020;29;20589;-84
2022/05/02 08:32:10;;;;;;;13.80;8.40;;;;;;;10.03;29.20;100858.63;10075614;29;20190;-88
2022/05/02 08:37:28;;;;;;;10.93;7.43;;;;;;;10.35;29.02;100850.81;10089270;29;20205;-85
2022/05/02 08:42:55;;;;;;;14.30;7.80;;;;;;;10.25;29.43;100850.59;10080061;29;20531;-85
2022/05/02 08:48:33;;;;;;;12.40;7.77;;;;;;;11.01;27.82;100854.69;10085795;29;20600;-85
2022/05/02 08:54:10;;;;;;;9.93;7.37;;;;;;;10.80;29.83;100849.38;10056792;29;20223;-84
2022/05/02 08:59:25;;;;;;;8.37;7.10;;;;;;;9.31;30.52;100857.97;10048604;29;20561;-84
2022/05/02 09:04:52;;;;;;;14.07;7.65;;;;;;;10.07;29.15;100845.28;10054299;29;20207;-86
2022/05/02 09:10:03;;;;;;;8.27;6.50;;;;;;;10.78;29.30;100834.66;10071382;29;20210;-85
2022/05/02 09:15:20;;;;;;;8.93;7.43;;;;;;;11.31;28.04;100834.88;10076713;29;20542;-87
2022/05/02 09:20:41;;;;;;;11.03;7.40;;;;;;;10.52;28.73;100826.75;10082768;29;20275;-85
2022/05/02 09:26:10;;;;;;;8.93;7.03;;;;;;;11.51;27.85;100831.59;10088607;29;20234;-86
2022/05/02 09:31:20;;;;;;;8.52;6.65;;;;;;;11.01;28.63;100831.84;10085611;29;20227;-86
2022/05/02 09:36:35;;;;;;;12.27;6.90;;;;;;;11.53;27.99;100829.19;10085940;29;20212;-86
2022/05/02 09:42:16;;;;;;;10.13;7.13;;;;;;;11.22;29.09;100820.84;10073446;29;20485;-84
2022/05/02 09:53:46;;;;;;;11.70;6.25;;;;;;;11.78;27.19;100814.47;10087068;29;20541;-85
2022/05/02 09:59:16;;;;;;;11.80;6.93;;;;;;;10.37;29.00;100802.81;10100043;29;20202;-86
2022/05/02 10:04:31;;;;;;;9.00;6.33;;;;;;;13.00;26.02;100800.66;10066165;29;20683;-87
2022/05/02 10:09:49;;;;;;;8.27;7.38;;;;;;;12.79;26.34;100795.53;10084121;29;20198;-86
2022/05/02 10:15:16;;;;;;;11.05;6.00;;;;;;;11.30;28.09;100796.91;10060288;29;20608;-85
2022/05/02 10:20:20;;;;;;;9.45;7.03;;;;;;;11.73;27.20;100787.06;10062910;29;20234;-84
2022/05/02 10:25:42;;;;;;;9.07;6.18;;;;;;;12.63;26.23;100780.59;10041094;29;20190;-86
2022/05/02 10:31:38;;;;;;;8.57;6.87;;;;;;;12.41;26.87;100785.22;10054260;29;20207;-86
2022/05/02 10:36:42;;;;;;;10.55;6.72;;;;;;;12.99;26.00;100773.25;9938139;29;20253;-84
2022/05/02 10:41:54;;;;;;;9.18;5.68;;;;;;;12.20;26.53;100775.13;10015796;29;20447;-88
2022/05/02 10:47:03;;;;;;;8.07;6.37;;;;;;;14.32;24.65;100749.72;10075340;29;20206;-85
2022/05/02 10:52:45;;;;;;;6.55;5.68;;;;;;;13.18;26.00;100761.59;10059978;29;20197;-86
2022/05/02 10:57:55;;;;;;;7.28;6.05;;;;;;;13.25;25.29;100750.16;10079076;29;20205;-84
2022/05/02 11:03:16;;;;;;;10.35;6.40;;;;;;;14.43;25.75;100746.09;10090904;29;20273;-85
2022/05/02 11:08:37;;;;;;;10.63;6.30;;;;;;;14.60;24.38;100736.75;10090446;29;20210;-83
2022/05/02 11:13:44;;;;;;;13.23;6.75;;;;;;;14.65;24.61;100744.94;10074110;29;20266;-85
2022/05/02 11:24:27;;;;;;;8.65;6.90;;;;;;;13.05;25.82;100734.44;10083919;29;20207;-84
2022/05/02 11:30:04;;;;;;;8.27;6.18;;;;;;;13.26;26.60;100723.16;10050305;29;20203;-84
2022/05/02 11:35:22;;;;;;;8.63;6.60;;;;;;;13.61;25.18;100723.47;10047286;29;20258;-84
2022/05/02 11:40:42;;;;;;;9.68;6.47;;;;;;;14.03;24.45;100709.81;10048348;29;20218;-85
2022/05/02 11:46:20;;;;;;;8.68;6.50;;;;;;;14.38;24.62;100709.16;10070498;29;20675;-84
2022/05/02 11:51:29;;;;;;;9.88;7.35;;;;;;;14.10;24.84;100707.81;10042437;29;20207;-84
2022/05/02 11:56:40;;;;;;;13.50;7.32;;;;;;;14.04;25.01;100706.56;10045115;29;20203;-87
2022/05/02 12:01:45;;;;;;;8.95;6.78;;;;;;;14.78;25.12;100700.28;10048562;29;20262;-84
2022/05/02 12:07:02;;;;;;;7.95;7.15;;;;;;;12.94;25.53;100697.09;10049543;29;20247;-84
2022/05/02 12:12:07;;;;;;;9.82;6.90;;;;;;;15.24;23.74;100685.16;10048167;29;20231;-84
2022/05/02 12:17:10;;;;;;;7.60;6.82;;;;;;;14.63;24.00;100687.09;10046835;29;20267;-84
2022/05/02 12:22:16;;;;;;;9.70;6.78;;;;;;;15.16;22.82;100686.38;10032053;29;20257;-85
2022/05/02 12:27:19;;;;;;;10.63;7.38;;;;;;;15.36;22.69;100679.81;10031037;29;20194;-84
2022/05/02 12:32:33;;;;;;;8.55;7.10;;;;;;;14.03;24.00;100679.09;10031285;29;20237;-84
2022/05/02 12:37:42;;;;;;;11.07;7.25;;;;;;;15.00;23.42;100678.16;10032514;29;20205;-84
2022/05/02 12:42:55;;;;;;;9.38;6.93;;;;;;;15.49;23.07;100671.59;10047463;29;20246;-85
2022/05/02 12:48:07;;;;;;;9.57;7.00;;;;;;;15.66;22.72;100667.06;10032927;29;20202;-86
2022/05/02 12:54:09;;;;;;;9.23;7.72;;;;;;;15.82;23.10;100666.59;10026593;29;20516;-84
2022/05/02 13:04:17;;;;;;;17.80;7.72;;;;;;;15.59;22.41;100659.28;10040669;29;20274;-85
2022/05/02 13:09:21;;;;;;;6.95;6.35;;;;;;;15.47;22.26;100648.19;10033666;29;20198;-84
2022/05/02 13:14:25;;;;;;;10.40;6.88;;;;;;;15.37;21.71;100654.78;10039372;29;20274;-85
2022/05/02 13:19:34;;;;;;;7.68;5.82;;;;;;;16.00;21.95;100644.34;10029587;29;20234;-84
2022/05/02 13:24:52;;;;;;;10.40;7.22;;;;;;;16.55;21.51;100632.16;10030357;29;20235;-85
2022/05/02 13:29:57;;;;;;;9.18;7.88;;;;;;;15.97;22.76;100636.53;10045838;29;20222;-84
2022/05/02 13:35:10;;;;;;;10.57;8.13;;;;;;;16.15;21.65;100634.44;10044359;29;20489;-84
2022/05/02 13:40:15;;;;;;;10.45;7.47;;;;;;;17.70;20.86;100625.81;10044524;29;20190;-85
2022/05/02 13:45:26;;;;;;;10.35;8.98;;;;;;;15.62;22.41;100623.13;10030555;29;20490;-83
2022/05/02 13:50:29;;;;;;;11.40;8.65;;;;;;;15.86;22.63;100627.97;10040930;29;20657;-84
2022/05/02 13:55:46;;;;;;;10.82;7.50;;;;;;;16.59;21.65;100615.66;10030930;29;20202;-84
2022/05/02 14:01:36;;;;;;;9.23;7.60;;;;;;;16.13;22.13;100611.00;10043231;29;20218;-84
2022/05/02 14:06:55;;;;;;;11.73;7.53;;;;;;;15.69;21.96;100603.78;10061702;29;20232;-84
2022/05/02 14:11:58;;;;;;;12.02;7.25;;;;;;;15.92;22.78;100603.25;10029770;29;20206;-82
2022/05/02 14:17:00;;;;;;;12.35;7.50;;;;;;;16.51;22.12;100605.44;10054786;29;20234;-83
2022/05/02 14:22:05;;;;;;;11.77;7.00;;;;;;;17.42;21.20;100595.22;10046193;29;20303;-84
2022/05/02 14:27:09;;;;;;;8.00;7.05;;;;;;;15.90;21.86;100599.19;10046379;29;20219;-81
2022/05/02 14:32:12;;;;;;;9.63;7.97;;;;;;;16.55;21.67;100600.47;10021318;29;20227;-82
2022/05/02 14:37:22;;;;;;;10.80;7.85;;;;;;;15.37;22.57;100594.41;10063170;29;20596;-81
2022/05/02 14:42:25;;;;;;;10.27;7.75;;;;;;;14.12;23.74;100599.22;10070849;29;20222;-82
2022/05/02 14:47:28;;;;;;;9.25;7.47;;;;;;;15.04;22.11;100592.81;10043066;29;20242;-83
2022/05/02 14:52:37;;;;;;;8.15;6.70;;;;;;;15.74;22.02;100586.09;10042139;29;20222;-85
2022/05/02 14:57:43;;;;;;;9.48;6.97;;;;;;;15.79;21.95;100586.91;10026128;29;20230;-81
2022/05/02 15:02:47;;;;;;;6.57;5.78;;;;;;;15.70;22.64;100582.41;10035256;29;20254;-83
2022/05/02 15:08:17;;;;;;;8.55;5.40;;;;;;;16.39;21.69;100575.91;10050112;29;20234;-85
2022/05/02 15:13:53;;;;;;;8.43;6.40;;;;;;;14.81;23.44;100573.09;10047382;29;20283;-84
2022/05/02 15:25:10;;;;;;;10.95;5.28;;;;;;;15.41;22.65;100566.47;10070050;29;20258;-85
2022/05/02 15:41:00;;;;;;;7.57;5.53;;;;;;;15.39;22.78;100551.72;10062753;29;20262;-86
2022/05/02 15:46:12;;;;;;;6.50;5.72;;;;;;;13.59;24.09;100553.13;10076788;29;20587;-85
2022/05/02 15:51:14;;;;;;;6.10;5.18;;;;;;;16.41;21.41;100544.63;10067458;29;20664;-85
2022/05/02 15:56:19;;;;;;;5.22;4.72;;;;;;;16.58;22.05;100533.38;10061154;29;20298;-84
2022/05/02 16:01:35;;;;;;;8.25;5.70;;;;;;;16.70;21.07;100541.53;10063704;29;20226;-87
2022/05/02 16:06:50;;;;;;;6.60;5.85;;;;;;;15.86;22.27;100535.91;10058290;29;20198;-86
2022/05/02 16:11:53;;;;;;;5.97;4.90;;;;;;;16.25;21.63;100544.34;10041485;29;20198;-87
2022/05/02 16:16:56;;;;;;;5.40;4.65;;;;;;;16.37;21.14;100535.19;10060195;29;20198;-89
2022/05/02 16:21:59;;;;;;;6.85;5.30;;;;;;;16.24;22.29;100541.88;10070365;29;20263;-86
2022/05/02 16:27:02;;;;;;;9.02;5.95;;;;;;;14.96;23.02;100546.03;10087987;29;20206;-85
2022/05/02 16:32:06;;;;;;;6.18;4.88;;;;;;;15.97;22.16;100547.34;10073949;29;20198;-85
2022/05/02 16:37:08;;;;;;;8.38;5.15;;;;;;;16.12;21.71;100537.41;10053523;29;20295;-91
2022/05/02 16:42:13;;;;;;;7.80;5.50;;;;;;;14.56;23.50;100532.09;10051949;29;20254;-83
2022/05/02 16:47:17;;;;;;;6.07;4.50;;;;;;;15.92;22.36;100533.44;10052902;29;20214;-86
2022/05/02 16:52:19;;;;;;;8.60;5.43;;;;;;;15.30;22.59;100531.19;10072233;29;20254;-85
2022/05/02 16:57:33;;;;;;;7.97;5.00;;;;;;;14.70;23.16;100532.91;10084513;29;20202;-86
2022/05/02 17:02:35;;;;;;;7.28;5.00;;;;;;;14.20;23.92;100532.06;10049236;29;20637;-85
2022/05/02 17:07:38;;;;;;;9.48;5.18;;;;;;;16.01;21.63;100537.47;10081782;29;20190;-89
2022/05/02 17:12:40;;;;;;;5.60;4.22;;;;;;;16.62;21.65;100529.25;10072189;29;20206;-84
2022/05/02 17:17:45;;;;;;;7.75;4.75;;;;;;;16.42;21.86;100537.66;10067123;29;20356;-88
2022/05/02 17:22:49;;;;;;;6.63;5.28;;;;;;;14.99;23.30;100539.47;10042114;29;20266;-88
2022/05/02 17:27:57;;;;;;;6.30;4.88;;;;;;;15.47;22.35;100546.75;10080888;29;20262;-87
2022/05/02 17:33:00;;;;;;;5.50;4.38;;;;;;;16.12;21.73;100546.03;10063731;29;20428;-87
2022/05/02 17:38:04;;;;;;;6.28;4.85;;;;;;;15.35;22.39;100548.00;10078437;29;20363;-86
2022/05/02 17:43:35;;;;;;;5.38;4.22;;;;;;;15.33;22.51;100541.84;10049247;29;20257;-81
2022/05/02 17:48:39;;;;;;;7.95;4.70;;;;;;;15.24;22.70;100539.44;10068558;29;20269;-84
2022/05/02 17:53:46;;;;;;;6.63;5.10;;;;;;;14.16;23.71;100547.59;10076995;29;20226;-87
2022/05/02 17:59:00;;;;;;;7.85;5.57;;;;;;;14.48;23.74;100559.16;10045197;29;20274;-81
2022/05/02 18:04:10;;;;;;;6.30;5.70;;;;;;;14.82;22.70;100559.56;10025097;29;20309;-82
2022/05/02 18:09:14;;;;;;;7.43;5.18;;;;;;;14.94;22.88;100562.84;10024676;29;20607;-85
2022/05/02 18:14:17;;;;;;;8.40;5.75;;;;;;;15.08;22.93;100564.09;10036094;29;20617;-82
2022/05/02 18:19:25;;;;;;;8.23;5.35;;;;;;;15.02;23.03;100561.59;10034637;29;20266;-82
2022/05/02 18:24:35;;;;;;;9.27;5.57;;;;;;;15.17;23.03;100568.16;10034882;29;20245;-86
2022/05/02 18:29:44;;;;;;;5.20;4.68;;;;;;;15.40;22.85;100570.56;10053905;29;20600;-85
2022/05/02 18:40:26;;;;;;;10.48;5.30;;;;;;;14.86;23.38;100581.31;10017598;29;20210;-87
2022/05/02 18:56:11;;;;;;;5.83;4.57;;;;;;;15.07;23.96;100585.44;10045170;29;20217;-86
2022/05/02 19:01:19;;;;;;;5.03;4.50;;;;;;;14.50;24.96;100583.34;10048306;29;20254;-83
2022/05/02 19:06:22;;;;;;;7.18;5.47;;;;;;;14.12;25.43;100593.47;10047801;29;20329;-87
2022/05/02 19:11:25;;;;;;;13.98;4.80;;;;;;;14.40;24.97;100597.66;10061672;29;20210;-87
2022/05/02 19:16:35;;;;;;;7.72;4.78;;;;;;;14.04;25.58;100602.47;10069447;29;20301;-87
2022/05/02 19:21:59;;;;;;;6.00;4.68;;;;;;;13.63;26.61;100614.16;10060023;29;20237;-84
2022/05/02 19:27:02;;;;;;;5.57;4.53;;;;;;;13.83;26.02;100614.66;10075854;29;20578;-82
2022/05/02 19:32:06;;;;;;;8.30;5.10;;;;;;;13.84;26.24;100622.06;10070121;29;20526;-87
2022/05/02 19:42:35;;;;;;;8.83;5.17;;;;;;;13.67;26.50;100631.38;10031258;29;20651;-82
2022/05/02 19:47:40;;;;;;;6.50;4.87;;;;;;;13.72;26.17;100628.94;10017508;29;20226;-83
2022/05/02 19:52:43;;;;;;;7.00;5.17;;;;;;;13.13;26.73;100636.72;10039167;29;20612;-83
2022/05/02 19:57:46;;;;;;;8.63;5.70;;;;;;;13.06;27.32;100638.72;10036868;29;20234;-83
2022/05/02 20:02:51;;;;;;;8.80;5.40;;;;;;;12.93;27.16;100641.09;10039092;29;20322;-81
2022/05/02 20:07:54;;;;;;;6.57;5.17;;;;;;;12.79;27.38;100647.50;10046054;29;20254;-83
2022/05/02 20:12:56;;;;;;;8.17;5.97;;;;;;;12.79;27.63;100647.50;10026707;29;20210;-82
2022/05/02 20:17:59;;;;;;;8.10;5.93;;;;;;;12.54;27.50;100660.72;10065789;29;20715;-83
2022/05/02 20:23:01;;;;;;;7.17;6.47;;;;;;;12.63;27.65;100655.47;10067381;29;20295;-83
2022/05/02 20:28:04;;;;;;;8.70;6.57;;;;;;;12.72;27.03;100647.41;10053440;29;20553;-83
2022/05/02 20:38:27;;;;;;;8.23;6.30;;;;;;;12.31;27.49;100651.44;10061750;29;20270;-86
2022/05/02 20:43:46;;;;;;;8.57;6.32;;;;;;;12.27;28.00;100653.47;10079131;29;20250;-83
2022/05/02 20:48:54;;;;;;;7.47;5.90;;;;;;;12.22;28.32;100649.72;10062403;29;20202;-84
2022/05/02 20:53:57;;;;;;;9.30;6.03;;;;;;;12.19;28.19;100653.38;10066111;29;20541;-83
2022/05/02 20:58:59;;;;;;;8.93;6.37;;;;;;;12.22;28.42;100658.31;10053575;29;20211;-83
2022/05/02 21:04:01;;;;;;;8.77;6.57;;;;;;;11.85;28.31;100658.22;10079668;29;20222;-82
2022/05/02 21:09:03;;;;;;;10.77;6.73;;;;;;;11.91;28.26;100658.69;10062806;29;20206;-82
2022/05/02 21:14:16;;;;;;;16.50;6.80;;;;;;;11.53;28.94;100654.91;10062908;29;20202;-82
2022/05/02 21:19:45;;;;;;;8.50;6.80;;;;;;;11.13;29.26;100669.75;10063147;29;20257;-83
2022/05/02 21:25:26;;;;;;;15.10;7.77;;;;;;;11.16;28.87;100662.47;10060135;29;20770;-84
2022/05/02 21:31:06;;;;;;;8.33;7.13;;;;;;;11.61;28.97;100664.44;10076342;29;20198;-83
2022/05/02 21:36:09;;;;;;;7.83;6.67;;;;;;;10.65;30.31;100671.34;10073355;29;20194;-82
2022/05/02 21:41:11;;;;;;;13.50;8.13;;;;;;;11.33;28.88;100678.25;10068155;29;20386;-83
2022/05/02 21:46:14;;;;;;;10.77;7.50;;;;;;;11.52;28.68;100678.97;10058282;29;20250;-83
2022/05/02 21:51:16;;;;;;;9.37;7.53;;;;;;;11.17;28.61;100686.97;10060775;29;20470;-83
2022/05/02 21:56:18;;;;;;;13.37;8.03;;;;;;;11.57;27.45;100688.44;10060928;29;20210;-82
2022/05/02 22:01:25;;;;;;;11.03;7.57;;;;;;;11.18;28.15;100700.84;10076422;29;20700;-82
2022/05/02 22:06:27;;;;;;;10.40;7.50;;;;;;;10.55;28.65;100700.50;10075010;29;20262;-82
2022/05/02 22:11:29;;;;;;;9.30;7.50;;;;;;;11.03;27.96;100703.84;10078942;29;20241;-82
2022/05/02 22:16:32;;;;;;;9.90;7.47;;;;;;;9.87;29.30;100715.34;10063184;29;20250;-82
2022/05/02 22:21:34;;;;;;;13.10;7.90;;;;;;;9.50;30.04;100711.22;10050237;29;20237;-83
2022/05/02 22:26:36;;;;;;;8.57;7.00;;;;;;;9.46;29.68;100721.69;10047277;29;20573;-82
2022/05/02 22:31:39;;;;;;;11.37;6.90;;;;;;;9.58;30.03;100730.13;10046267;29;20229;-82
2022/05/02 22:36:41;;;;;;;8.53;6.70;;;;;;;8.97;30.73;100724.91;10058570;29;20218;-82
2022/05/02 22:41:43;;;;;;;9.93;7.07;;;;;;;9.60;30.02;100722.03;10057431;29;20214;-82
2022/05/02 22:46:45;;;;;;;10.87;6.50;;;;;;;9.60;29.83;100725.72;10053936;29;20219;-83
2022/05/02 22:51:47;;;;;;;7.37;5.93;;;;;;;9.65;29.67;100724.59;10062444;29;20215;-82
2022/05/02 22:56:54;;;;;;;7.83;6.00;;;;;;;9.48;30.04;100719.31;10044512;29;20673;-82
2022/05/02 23:02:04;;;;;;;10.13;5.93;;;;;;;8.56;31.90;100729.88;10046386;29;20202;-82
2022/05/02 23:07:27;;;;;;;11.90;5.90;;;;;;;8.41;32.25;100724.97;10060419;29;20257;-83
2022/05/02 23:12:31;;;;;;;7.40;6.17;;;;;;;9.61;30.28;100720.84;10060828;29;20611;-82
2022/05/02 23:17:34;;;;;;;8.20;6.10;;;;;;;9.26;30.44;100724.44;10048270;29;20281;-82
2022/05/02 23:22:37;;;;;;;9.43;6.07;;;;;;;9.23;30.74;100725.19;10049665;29;20234;-82
2022/05/02 23:27:40;;;;;;;6.40;5.30;;;;;;;10.19;29.11;100720.94;10038182;29;20270;-83
2022/05/02 23:32:47;;;;;;;7.90;5.70;;;;;;;9.25;30.74;100724.81;10050944;29;20234;-83
2022/05/02 23:38:02;;;;;;;6.37;5.07;;;;;;;9.60;30.30;100719.19;10060263;29;20234;-82
2022/05/02 23:43:32;;;;;;;7.30;5.70;;;;;;;9.49;29.91;100712.41;10032968;29;20305;-85
2022/05/02 23:48:40;;;;;;;8.47;6.10;;;;;;;9.55;29.98;100719.50;10008098;29;20263;-82
2022/05/02 23:53:49;;;;;;;6.43;5.70;;;;;;;9.62;29.59;100726.16;10064979;29;20356;-82
2022/05/02 23:59:01;;;;;;;8.63;5.90;;;;;;;9.29;30.68;100723.72;10060568;29;20294;-82
